sensor_id;sensor_type;location;lat;lon;timestamp;pressure;altitude;pressure_sealevel;temperature;humidity
78671;BME280;68277;52.724;6.516;2023-06-10T00:01:14;101632.88;;;18.08;51.19
78671;BME280;68277;52.724;6.516;2023-06-10T00:03:41;101660.59;;;18.29;51.22
78671;BME280;68277;52.724;6.516;2023-06-10T00:06:08;101655.72;;;18.17;51.45
78671;BME280;68277;52.724;6.516;2023-06-10T00:08:34;101647.06;;;18.10;51.41
78671;BME280;68277;52.724;6.516;2023-06-10T00:10:59;101653.66;;;18.02;51.40
78671;BME280;68277;52.724;6.516;2023-06-10T00:13:25;101639.94;;;17.88;51.82
78671;BME280;68277;52.724;6.516;2023-06-10T00:15:52;101645.94;;;17.94;51.32
78671;BME280;68277;52.724;6.516;2023-06-10T00:18:17;101653.22;;;17.91;51.72
78671;BME280;68277;52.724;6.516;2023-06-10T00:20:43;101673.56;;;17.95;52.03
78671;BME280;68277;52.724;6.516;2023-06-10T00:23:08;101643.13;;;17.75;51.64
78671;BME280;68277;52.724;6.516;2023-06-10T00:25:35;101637.97;;;17.71;51.75
78671;BME280;68277;52.724;6.516;2023-06-10T00:28:00;101653.59;;;17.82;51.73
78671;BME280;68277;52.724;6.516;2023-06-10T00:30:28;101638.94;;;17.68;52.04
78671;BME280;68277;52.724;6.516;2023-06-10T00:32:53;101679.47;;;17.81;52.20
78671;BME280;68277;52.724;6.516;2023-06-10T00:35:19;101640.16;;;17.60;52.23
78671;BME280;68277;52.724;6.516;2023-06-10T00:37:44;101656.91;;;17.65;51.95
78671;BME280;68277;52.724;6.516;2023-06-10T00:40:10;101661.91;;;17.74;52.13
78671;BME280;68277;52.724;6.516;2023-06-10T00:42:36;101656.97;;;17.63;52.18
78671;BME280;68277;52.724;6.516;2023-06-10T00:45:02;101658.59;;;17.67;52.13
78671;BME280;68277;52.724;6.516;2023-06-10T00:47:28;101670.00;;;17.72;52.12
78671;BME280;68277;52.724;6.516;2023-06-10T00:49:54;101679.84;;;17.72;52.42
78671;BME280;68277;52.724;6.516;2023-06-10T00:52:22;101661.56;;;17.60;52.35
78671;BME280;68277;52.724;6.516;2023-06-10T00:54:51;101670.53;;;17.59;52.85
78671;BME280;68277;52.724;6.516;2023-06-10T00:57:17;101685.63;;;17.61;52.75
78671;BME280;68277;52.724;6.516;2023-06-10T00:59:47;101648.31;;;17.32;53.27
78671;BME280;68277;52.724;6.516;2023-06-10T01:02:13;101654.38;;;17.37;53.24
78671;BME280;68277;52.724;6.516;2023-06-10T01:04:38;101670.34;;;17.40;53.31
78671;BME280;68277;52.724;6.516;2023-06-10T01:07:20;101675.56;;;17.43;53.75
78671;BME280;68277;52.724;6.516;2023-06-10T01:14:59;101678.53;;;17.36;54.40
78671;BME280;68277;52.724;6.516;2023-06-10T01:17:26;101637.44;;;17.14;53.61
78671;BME280;68277;52.724;6.516;2023-06-10T01:19:55;101683.19;;;17.31;55.75
78671;BME280;68277;52.724;6.516;2023-06-10T01:22:27;101659.66;;;17.16;54.32
78671;BME280;68277;52.724;6.516;2023-06-10T01:25:02;101657.03;;;17.14;54.59
78671;BME280;68277;52.724;6.516;2023-06-10T01:27:30;101674.78;;;17.17;54.82
78671;BME280;68277;52.724;6.516;2023-06-10T01:30:10;101687.03;;;17.22;55.21
78671;BME280;68277;52.724;6.516;2023-06-10T01:32:44;101674.06;;;17.12;54.65
78671;BME280;68277;52.724;6.516;2023-06-10T01:35:10;101690.06;;;17.13;55.42
78671;BME280;68277;52.724;6.516;2023-06-10T01:37:38;101682.09;;;17.12;55.23
78671;BME280;68277;52.724;6.516;2023-06-10T01:40:05;101668.22;;;17.00;55.06
78671;BME280;68277;52.724;6.516;2023-06-10T01:42:34;101657.91;;;16.90;55.39
78671;BME280;68277;52.724;6.516;2023-06-10T01:45:00;101672.81;;;16.97;55.74
78671;BME280;68277;52.724;6.516;2023-06-10T01:47:25;101687.88;;;16.99;55.88
78671;BME280;68277;52.724;6.516;2023-06-10T01:49:51;101684.38;;;16.97;55.93
78671;BME280;68277;52.724;6.516;2023-06-10T01:52:17;101673.97;;;16.90;56.03
78671;BME280;68277;52.724;6.516;2023-06-10T01:54:43;101688.84;;;16.97;59.24
78671;BME280;68277;52.724;6.516;2023-06-10T01:57:10;101681.19;;;16.86;55.99
78671;BME280;68277;52.724;6.516;2023-06-10T01:59:36;101674.47;;;16.75;56.53
78671;BME280;68277;52.724;6.516;2023-06-10T02:02:04;101693.91;;;16.80;56.11
78671;BME280;68277;52.724;6.516;2023-06-10T02:04:31;101674.78;;;16.66;56.59
78671;BME280;68277;52.724;6.516;2023-06-10T02:06:58;101674.03;;;16.62;57.02
78671;BME280;68277;52.724;6.516;2023-06-10T02:09:25;101690.00;;;16.64;56.46
78671;BME280;68277;52.724;6.516;2023-06-10T02:11:50;101672.53;;;16.54;57.77
78671;BME280;68277;52.724;6.516;2023-06-10T02:14:17;101686.63;;;16.59;57.19
78671;BME280;68277;52.724;6.516;2023-06-10T02:16:42;101684.91;;;16.56;57.05
78671;BME280;68277;52.724;6.516;2023-06-10T02:19:10;101687.59;;;16.56;57.43
78671;BME280;68277;52.724;6.516;2023-06-10T02:21:36;101686.91;;;16.50;57.88
78671;BME280;68277;52.724;6.516;2023-06-10T02:24:01;101684.53;;;16.40;57.19
78671;BME280;68277;52.724;6.516;2023-06-10T02:26:27;101682.03;;;16.36;57.45
78671;BME280;68277;52.724;6.516;2023-06-10T02:28:52;101680.31;;;16.33;58.09
78671;BME280;68277;52.724;6.516;2023-06-10T02:31:19;101707.53;;;16.44;58.04
78671;BME280;68277;52.724;6.516;2023-06-10T02:33:44;101713.09;;;16.38;58.25
78671;BME280;68277;52.724;6.516;2023-06-10T02:36:10;101714.06;;;16.36;58.18
78671;BME280;68277;52.724;6.516;2023-06-10T02:38:41;101676.56;;;16.13;58.63
78671;BME280;68277;52.724;6.516;2023-06-10T02:41:06;101694.00;;;16.23;58.83
78671;BME280;68277;52.724;6.516;2023-06-10T02:43:32;101708.88;;;16.31;58.84
78671;BME280;68277;52.724;6.516;2023-06-10T02:45:58;101692.38;;;16.19;58.64
78671;BME280;68277;52.724;6.516;2023-06-10T02:48:24;101700.53;;;16.14;58.84
78671;BME280;68277;52.724;6.516;2023-06-10T02:50:50;101690.06;;;16.08;59.42
78671;BME280;68277;52.724;6.516;2023-06-10T02:53:21;101694.44;;;16.09;58.88
78671;BME280;68277;52.724;6.516;2023-06-10T02:55:53;101692.97;;;15.99;58.96
78671;BME280;68277;52.724;6.516;2023-06-10T02:58:19;101696.59;;;15.98;59.40
78671;BME280;68277;52.724;6.516;2023-06-10T03:00:46;101690.50;;;15.93;59.98
78671;BME280;68277;52.724;6.516;2023-06-10T03:03:13;101709.94;;;15.98;59.96
78671;BME280;68277;52.724;6.516;2023-06-10T03:05:51;101689.09;;;15.82;60.10
78671;BME280;68277;52.724;6.516;2023-06-10T03:08:19;101699.69;;;15.85;60.16
78671;BME280;68277;52.724;6.516;2023-06-10T03:10:44;101716.31;;;15.94;60.17
78671;BME280;68277;52.724;6.516;2023-06-10T03:13:13;101722.50;;;15.95;60.81
78671;BME280;68277;52.724;6.516;2023-06-10T03:15:39;101703.41;;;15.79;60.70
78671;BME280;68277;52.724;6.516;2023-06-10T03:18:09;101697.31;;;15.76;62.73
78671;BME280;68277;52.724;6.516;2023-06-10T03:20:35;101699.03;;;15.77;61.27
78671;BME280;68277;52.724;6.516;2023-06-10T03:23:04;101696.50;;;15.72;61.58
78671;BME280;68277;52.724;6.516;2023-06-10T03:25:32;101725.44;;;15.86;61.76
78671;BME280;68277;52.724;6.516;2023-06-10T03:27:58;101696.72;;;15.64;61.56
78671;BME280;68277;52.724;6.516;2023-06-10T03:30:24;101700.34;;;15.62;60.99
78671;BME280;68277;52.724;6.516;2023-06-10T03:32:50;101721.34;;;15.74;61.38
78671;BME280;68277;52.724;6.516;2023-06-10T03:35:17;101703.97;;;15.61;61.29
78671;BME280;68277;52.724;6.516;2023-06-10T03:37:43;101693.28;;;15.61;61.41
78671;BME280;68277;52.724;6.516;2023-06-10T03:40:13;101721.31;;;15.76;62.60
78671;BME280;68277;52.724;6.516;2023-06-10T03:42:42;101727.50;;;15.76;61.80
78671;BME280;68277;52.724;6.516;2023-06-10T03:45:10;101711.97;;;15.61;61.58
78671;BME280;68277;52.724;6.516;2023-06-10T03:47:37;101723.28;;;15.69;61.65
78671;BME280;68277;52.724;6.516;2023-06-10T03:50:05;101718.97;;;15.65;61.73
78671;BME280;68277;52.724;6.516;2023-06-10T03:52:33;101716.22;;;15.68;61.84
78671;BME280;68277;52.724;6.516;2023-06-10T03:54:59;101742.53;;;15.80;61.87
78671;BME280;68277;52.724;6.516;2023-06-10T03:57:25;101735.44;;;15.79;61.89
78671;BME280;68277;52.724;6.516;2023-06-10T03:59:51;101723.25;;;15.70;61.96
78671;BME280;68277;52.724;6.516;2023-06-10T04:02:16;101730.28;;;15.73;62.30
78671;BME280;68277;52.724;6.516;2023-06-10T04:04:43;101723.13;;;15.73;62.33
78671;BME280;68277;52.724;6.516;2023-06-10T04:07:08;101713.56;;;15.66;62.14
78671;BME280;68277;52.724;6.516;2023-06-10T04:09:36;101706.44;;;15.67;62.97
78671;BME280;68277;52.724;6.516;2023-06-10T04:12:02;101684.66;;;15.81;62.45
78671;BME280;68277;52.724;6.516;2023-06-10T04:14:31;101720.41;;;16.04;62.61
78671;BME280;68277;52.724;6.516;2023-06-10T04:16:57;101713.34;;;16.03;62.22
78671;BME280;68277;52.724;6.516;2023-06-10T04:19:23;101692.44;;;15.88;62.88
78671;BME280;68277;52.724;6.516;2023-06-10T04:21:50;101711.97;;;15.90;62.52
78671;BME280;68277;52.724;6.516;2023-06-10T04:24:15;101719.81;;;15.95;62.79
78671;BME280;68277;52.724;6.516;2023-06-10T04:26:42;101728.78;;;15.94;62.88
78671;BME280;68277;52.724;6.516;2023-06-10T04:29:08;101742.72;;;16.03;62.52
78671;BME280;68277;52.724;6.516;2023-06-10T04:31:34;101725.16;;;15.95;62.50
78671;BME280;68277;52.724;6.516;2023-06-10T04:33:59;101726.03;;;15.97;62.99
78671;BME280;68277;52.724;6.516;2023-06-10T04:36:26;101745.03;;;16.15;65.37
78671;BME280;68277;52.724;6.516;2023-06-10T04:38:52;101733.41;;;16.16;62.44
78671;BME280;68277;52.724;6.516;2023-06-10T04:41:18;101733.72;;;17.14;61.00
78671;BME280;68277;52.724;6.516;2023-06-10T04:43:43;101719.72;;;17.80;58.27
78671;BME280;68277;52.724;6.516;2023-06-10T04:46:09;101732.75;;;17.89;58.86
78671;BME280;68277;52.724;6.516;2023-06-10T04:48:36;101743.25;;;18.16;58.81
78671;BME280;68277;52.724;6.516;2023-06-10T04:51:03;101729.63;;;18.22;58.60
78671;BME280;68277;52.724;6.516;2023-06-10T04:53:31;101720.47;;;18.06;58.78
78671;BME280;68277;52.724;6.516;2023-06-10T04:55:58;101746.47;;;18.03;59.94
78671;BME280;68277;52.724;6.516;2023-06-10T04:58:23;101741.06;;;17.81;61.08
78671;BME280;68277;52.724;6.516;2023-06-10T05:00:49;101708.19;;;17.77;61.66
78671;BME280;68277;52.724;6.516;2023-06-10T05:03:14;101745.47;;;18.28;60.54
78671;BME280;68277;52.724;6.516;2023-06-10T05:05:40;101719.41;;;18.75;58.78
78671;BME280;68277;52.724;6.516;2023-06-10T05:08:05;101749.66;;;19.00;57.78
78671;BME280;68277;52.724;6.516;2023-06-10T05:10:31;101749.59;;;18.80;58.33
78671;BME280;68277;52.724;6.516;2023-06-10T05:12:57;101732.91;;;18.52;58.57
78671;BME280;68277;52.724;6.516;2023-06-10T05:15:24;101748.81;;;18.57;59.10
78671;BME280;68277;52.724;6.516;2023-06-10T05:17:49;101738.16;;;18.97;57.90
78671;BME280;68277;52.724;6.516;2023-06-10T05:20:15;101767.16;;;19.29;57.24
78671;BME280;68277;52.724;6.516;2023-06-10T05:22:41;101748.56;;;19.25;57.61
78671;BME280;68277;52.724;6.516;2023-06-10T05:25:07;101755.66;;;19.05;58.58
78671;BME280;68277;52.724;6.516;2023-06-10T05:27:32;101753.94;;;19.04;58.63
78671;BME280;68277;52.724;6.516;2023-06-10T05:29:58;101740.03;;;19.15;57.67
78671;BME280;68277;52.724;6.516;2023-06-10T05:32:23;101748.00;;;19.38;57.28
78671;BME280;68277;52.724;6.516;2023-06-10T05:34:49;101740.59;;;19.43;57.00
78671;BME280;68277;52.724;6.516;2023-06-10T05:37:14;101759.84;;;19.53;57.67
78671;BME280;68277;52.724;6.516;2023-06-10T05:39:41;101742.16;;;19.49;57.76
78671;BME280;68277;52.724;6.516;2023-06-10T05:42:07;101728.19;;;19.61;57.31
78671;BME280;68277;52.724;6.516;2023-06-10T05:44:33;101760.00;;;19.89;57.47
78671;BME280;68277;52.724;6.516;2023-06-10T05:46:59;101748.22;;;20.30;55.55
78671;BME280;68277;52.724;6.516;2023-06-10T05:49:24;101724.25;;;21.31;51.76
78671;BME280;68277;52.724;6.516;2023-06-10T05:51:50;101719.78;;;20.96;52.15
78671;BME280;68277;52.724;6.516;2023-06-10T05:54:17;101742.97;;;20.45;53.97
78671;BME280;68277;52.724;6.516;2023-06-10T05:56:43;101719.78;;;20.96;52.63
78671;BME280;68277;52.724;6.516;2023-06-10T05:59:14;101733.75;;;22.19;49.12
78671;BME280;68277;52.724;6.516;2023-06-10T06:01:46;101720.25;;;22.19;48.47
78671;BME280;68277;52.724;6.516;2023-06-10T06:04:11;101751.94;;;21.33;51.00
78671;BME280;68277;52.724;6.516;2023-06-10T06:06:38;101737.81;;;20.41;53.70
78671;BME280;68277;52.724;6.516;2023-06-10T06:09:04;101750.50;;;20.19;54.14
78671;BME280;68277;52.724;6.516;2023-06-10T06:11:30;101744.06;;;20.04;54.77
78671;BME280;68277;52.724;6.516;2023-06-10T06:13:56;101735.47;;;19.96;54.53
78671;BME280;68277;52.724;6.516;2023-06-10T06:16:21;101749.91;;;20.32;54.29
78671;BME280;68277;52.724;6.516;2023-06-10T06:18:47;101750.38;;;20.40;54.38
78671;BME280;68277;52.724;6.516;2023-06-10T06:21:12;101725.94;;;20.81;53.49
78671;BME280;68277;52.724;6.516;2023-06-10T06:23:37;101742.50;;;21.42;52.21
78671;BME280;68277;52.724;6.516;2023-06-10T06:26:03;101730.53;;;21.47;52.00
78671;BME280;68277;52.724;6.516;2023-06-10T06:28:28;101739.56;;;21.46;52.19
78671;BME280;68277;52.724;6.516;2023-06-10T06:30:55;101719.94;;;21.27;51.93
78671;BME280;68277;52.724;6.516;2023-06-10T06:33:21;101733.38;;;20.76;53.31
78671;BME280;68277;52.724;6.516;2023-06-10T06:35:47;101758.78;;;20.70;53.70
78671;BME280;68277;52.724;6.516;2023-06-10T06:38:12;101738.13;;;21.56;51.12
78671;BME280;68277;52.724;6.516;2023-06-10T06:40:38;101758.66;;;21.59;51.41
78671;BME280;68277;52.724;6.516;2023-06-10T06:43:04;101733.09;;;21.33;51.53
78671;BME280;68277;52.724;6.516;2023-06-10T06:45:50;101750.19;;;22.15;49.87
78671;BME280;68277;52.724;6.516;2023-06-10T06:48:15;101739.31;;;23.08;48.06
78671;BME280;68277;52.724;6.516;2023-06-10T06:50:41;101731.03;;;22.66;48.53
78671;BME280;68277;52.724;6.516;2023-06-10T06:53:07;101735.66;;;22.02;49.66
78671;BME280;68277;52.724;6.516;2023-06-10T06:55:32;101737.31;;;21.22;51.90
78671;BME280;68277;52.724;6.516;2023-06-10T06:57:58;101760.59;;;20.87;52.88
78671;BME280;68277;52.724;6.516;2023-06-10T07:00:24;101745.69;;;20.63;53.46
78671;BME280;68277;52.724;6.516;2023-06-10T07:02:50;101736.91;;;20.59;53.57
78671;BME280;68277;52.724;6.516;2023-06-10T07:05:15;101755.38;;;21.01;53.08
78671;BME280;68277;52.724;6.516;2023-06-10T07:07:41;101755.44;;;21.18;52.47
78671;BME280;68277;52.724;6.516;2023-06-10T07:10:07;101765.44;;;21.66;51.61
78671;BME280;68277;52.724;6.516;2023-06-10T07:12:32;101746.47;;;22.80;48.21
78671;BME280;68277;52.724;6.516;2023-06-10T07:14:58;101751.16;;;22.76;48.17
78671;BME280;68277;52.724;6.516;2023-06-10T07:17:23;101739.13;;;22.19;49.54
78671;BME280;68277;52.724;6.516;2023-06-10T07:19:50;101758.69;;;21.92;51.16
78671;BME280;68277;52.724;6.516;2023-06-10T07:22:16;101743.69;;;21.53;51.59
78671;BME280;68277;52.724;6.516;2023-06-10T07:24:42;101750.13;;;21.34;51.96
78671;BME280;68277;52.724;6.516;2023-06-10T07:27:07;101740.06;;;21.03;51.92
78671;BME280;68277;52.724;6.516;2023-06-10T07:29:33;101770.88;;;21.15;52.41
78671;BME280;68277;52.724;6.516;2023-06-10T07:31:58;101758.50;;;21.10;52.02
78671;BME280;68277;52.724;6.516;2023-06-10T07:34:24;101748.28;;;21.00;52.82
78671;BME280;68277;52.724;6.516;2023-06-10T07:36:49;101760.75;;;21.20;52.86
78671;BME280;68277;52.724;6.516;2023-06-10T07:39:15;101764.78;;;21.45;53.30
78671;BME280;68277;52.724;6.516;2023-06-10T07:41:40;101758.56;;;21.60;54.49
78671;BME280;68277;52.724;6.516;2023-06-10T07:44:06;101761.72;;;21.86;52.57
78671;BME280;68277;52.724;6.516;2023-06-10T07:46:31;101754.13;;;22.56;50.49
78671;BME280;68277;52.724;6.516;2023-06-10T07:48:57;101732.19;;;23.79;47.14
78671;BME280;68277;52.724;6.516;2023-06-10T07:51:22;101756.66;;;24.06;46.33
78671;BME280;68277;52.724;6.516;2023-06-10T07:53:48;101756.16;;;24.00;46.13
78671;BME280;68277;52.724;6.516;2023-06-10T07:56:13;101756.00;;;25.24;43.41
78671;BME280;68277;52.724;6.516;2023-06-10T07:58:39;101778.81;;;25.07;43.02
78671;BME280;68277;52.724;6.516;2023-06-10T08:01:04;101755.44;;;24.38;44.34
78671;BME280;68277;52.724;6.516;2023-06-10T08:03:30;101762.84;;;24.76;44.43
78671;BME280;68277;52.724;6.516;2023-06-10T08:05:55;101746.47;;;25.31;43.12
78671;BME280;68277;52.724;6.516;2023-06-10T08:08:21;101736.22;;;24.29;44.75
78671;BME280;68277;52.724;6.516;2023-06-10T08:10:46;101760.28;;;24.05;45.55
78671;BME280;68277;52.724;6.516;2023-06-10T08:13:12;101752.47;;;24.15;45.43
78671;BME280;68277;52.724;6.516;2023-06-10T08:15:37;101783.59;;;24.77;45.00
78671;BME280;68277;52.724;6.516;2023-06-10T08:18:03;101768.94;;;24.93;44.47
78671;BME280;68277;52.724;6.516;2023-06-10T08:20:28;101773.13;;;24.44;45.94
78671;BME280;68277;52.724;6.516;2023-06-10T08:22:54;101759.22;;;24.36;46.67
78671;BME280;68277;52.724;6.516;2023-06-10T08:25:20;101784.03;;;24.42;46.69
78671;BME280;68277;52.724;6.516;2023-06-10T08:27:47;101782.25;;;24.15;47.37
78671;BME280;68277;52.724;6.516;2023-06-10T08:30:13;101769.47;;;23.89;47.26
78671;BME280;68277;52.724;6.516;2023-06-10T08:32:38;101782.31;;;23.85;47.46
78671;BME280;68277;52.724;6.516;2023-06-10T08:35:04;101757.00;;;23.86;46.14
78671;BME280;68277;52.724;6.516;2023-06-10T08:37:30;101771.50;;;23.85;45.49
78671;BME280;68277;52.724;6.516;2023-06-10T08:39:55;101768.03;;;23.83;46.40
78671;BME280;68277;52.724;6.516;2023-06-10T08:44:56;101786.72;;;24.42;46.18
78671;BME280;68277;52.724;6.516;2023-06-10T08:47:23;101779.41;;;24.85;43.81
78671;BME280;68277;52.724;6.516;2023-06-10T08:49:50;101775.06;;;25.22;43.16
78671;BME280;68277;52.724;6.516;2023-06-10T08:52:18;101762.22;;;25.51;42.95
78671;BME280;68277;52.724;6.516;2023-06-10T08:55:05;101773.56;;;25.31;39.37
78671;BME280;68277;52.724;6.516;2023-06-10T08:57:36;101754.06;;;24.86;41.95
78671;BME280;68277;52.724;6.516;2023-06-10T09:00:02;101780.22;;;25.00;42.87
78671;BME280;68277;52.724;6.516;2023-06-10T09:02:28;101764.09;;;25.11;41.90
78671;BME280;68277;52.724;6.516;2023-06-10T09:04:55;101770.59;;;25.08;41.89
78671;BME280;68277;52.724;6.516;2023-06-10T09:07:21;101751.34;;;25.26;41.49
78671;BME280;68277;52.724;6.516;2023-06-10T09:09:48;101735.44;;;25.46;41.39
78671;BME280;68277;52.724;6.516;2023-06-10T09:12:15;101773.31;;;25.73;40.74
78671;BME280;68277;52.724;6.516;2023-06-10T09:14:42;101766.81;;;25.88;40.37
78671;BME280;68277;52.724;6.516;2023-06-10T09:17:07;101757.03;;;26.11;39.94
78671;BME280;68277;52.724;6.516;2023-06-10T09:19:33;101760.41;;;26.51;39.41
78671;BME280;68277;52.724;6.516;2023-06-10T09:22:00;101748.59;;;26.39;39.41
78671;BME280;68277;52.724;6.516;2023-06-10T09:24:28;101761.22;;;26.40;40.16
78671;BME280;68277;52.724;6.516;2023-06-10T09:27:07;101768.44;;;26.16;40.01
78671;BME280;68277;52.724;6.516;2023-06-10T09:29:52;101761.47;;;25.99;40.44
78671;BME280;68277;52.724;6.516;2023-06-10T09:32:18;101749.94;;;26.08;40.45
78671;BME280;68277;52.724;6.516;2023-06-10T09:34:45;101742.16;;;26.16;40.92
78671;BME280;68277;52.724;6.516;2023-06-10T09:37:11;101755.25;;;26.35;41.60
78671;BME280;68277;52.724;6.516;2023-06-10T09:39:39;101749.56;;;26.38;40.28
78671;BME280;68277;52.724;6.516;2023-06-10T09:42:25;101746.66;;;26.65;36.62
78671;BME280;68277;52.724;6.516;2023-06-10T09:44:51;101744.13;;;26.98;39.79
78671;BME280;68277;52.724;6.516;2023-06-10T09:47:21;101720.31;;;27.01;39.07
78671;BME280;68277;52.724;6.516;2023-06-10T09:49:50;101734.84;;;27.24;38.95
78671;BME280;68277;52.724;6.516;2023-06-10T09:52:26;101723.84;;;27.60;37.05
78671;BME280;68277;52.724;6.516;2023-06-10T09:54:52;101747.22;;;27.74;36.22
78671;BME280;68277;52.724;6.516;2023-06-10T09:57:19;101753.72;;;27.49;35.75
78671;BME280;68277;52.724;6.516;2023-06-10T09:59:46;101745.72;;;27.35;35.43
78671;BME280;68277;52.724;6.516;2023-06-10T10:02:15;101752.84;;;27.14;34.16
78671;BME280;68277;52.724;6.516;2023-06-10T10:04:45;101734.31;;;27.08;34.82
78671;BME280;68277;52.724;6.516;2023-06-10T10:07:11;101746.50;;;27.02;35.74
78671;BME280;68277;52.724;6.516;2023-06-10T10:09:37;101746.78;;;27.10;35.74
78671;BME280;68277;52.724;6.516;2023-06-10T10:12:12;101745.00;;;27.33;35.86
78671;BME280;68277;52.724;6.516;2023-06-10T10:14:39;101724.34;;;27.31;36.42
78671;BME280;68277;52.724;6.516;2023-06-10T10:17:10;101747.81;;;27.55;37.14
78671;BME280;68277;52.724;6.516;2023-06-10T10:20:03;101747.06;;;27.64;36.46
78671;BME280;68277;52.724;6.516;2023-06-10T10:22:35;101723.56;;;27.63;35.43
78671;BME280;68277;52.724;6.516;2023-06-10T10:25:06;101745.09;;;27.55;35.72
78671;BME280;68277;52.724;6.516;2023-06-10T10:27:46;101746.66;;;27.47;34.23
78671;BME280;68277;52.724;6.516;2023-06-10T10:30:14;101736.59;;;27.36;35.41
78671;BME280;68277;52.724;6.516;2023-06-10T10:33:04;101740.75;;;27.64;34.55
78671;BME280;68277;52.724;6.516;2023-06-10T10:35:30;101745.09;;;27.55;33.33
78671;BME280;68277;52.724;6.516;2023-06-10T10:38:02;101721.41;;;27.34;33.49
78671;BME280;68277;52.724;6.516;2023-06-10T10:40:28;101722.91;;;27.38;33.68
78671;BME280;68277;52.724;6.516;2023-06-10T10:42:59;101717.53;;;27.25;33.23
78671;BME280;68277;52.724;6.516;2023-06-10T10:45:27;101723.31;;;27.21;32.34
78671;BME280;68277;52.724;6.516;2023-06-10T10:47:54;101728.22;;;27.39;33.47
78671;BME280;68277;52.724;6.516;2023-06-10T10:50:23;101736.78;;;27.57;32.81
78671;BME280;68277;52.724;6.516;2023-06-10T10:52:53;101728.91;;;27.76;32.57
78671;BME280;68277;52.724;6.516;2023-06-10T10:55:20;101726.16;;;27.87;32.33
78671;BME280;68277;52.724;6.516;2023-06-10T10:57:53;101720.34;;;27.92;32.34
78671;BME280;68277;52.724;6.516;2023-06-10T11:00:45;101714.19;;;27.90;32.06
78671;BME280;68277;52.724;6.516;2023-06-10T11:03:15;101725.47;;;28.07;31.95
78671;BME280;68277;52.724;6.516;2023-06-10T11:05:48;101723.09;;;28.14;32.11
78671;BME280;68277;52.724;6.516;2023-06-10T11:10:57;101719.25;;;28.05;30.48
78671;BME280;68277;52.724;6.516;2023-06-10T11:13:27;101719.88;;;28.31;29.75
78671;BME280;68277;52.724;6.516;2023-06-10T11:15:57;101709.72;;;28.33;30.08
78671;BME280;68277;52.724;6.516;2023-06-10T11:18:28;101707.59;;;28.48;29.50
78671;BME280;68277;52.724;6.516;2023-06-10T11:20:55;101703.75;;;28.39;28.04
78671;BME280;68277;52.724;6.516;2023-06-10T11:31:25;101701.38;;;28.45;27.40
78671;BME280;68277;52.724;6.516;2023-06-10T11:34:03;101677.63;;;28.36;27.16
78671;BME280;68277;52.724;6.516;2023-06-10T11:36:33;101699.88;;;28.64;27.13
78671;BME280;68277;52.724;6.516;2023-06-10T11:39:03;101695.84;;;28.79;27.27
78671;BME280;68277;52.724;6.516;2023-06-10T11:41:30;101688.63;;;28.89;27.57
78671;BME280;68277;52.724;6.516;2023-06-10T11:44:00;101652.72;;;28.84;27.03
78671;BME280;68277;52.724;6.516;2023-06-10T11:46:26;101666.16;;;28.96;27.18
78671;BME280;68277;52.724;6.516;2023-06-10T11:48:57;101680.66;;;28.97;23.59
78671;BME280;68277;52.724;6.516;2023-06-10T11:51:25;101675.25;;;28.86;26.58
78671;BME280;68277;52.724;6.516;2023-06-10T11:53:52;101691.75;;;29.05;26.64
78671;BME280;68277;52.724;6.516;2023-06-10T11:56:26;101692.69;;;29.15;25.71
78671;BME280;68277;52.724;6.516;2023-06-10T11:58:56;101687.81;;;29.30;25.87
78671;BME280;68277;52.724;6.516;2023-06-10T12:01:26;101671.09;;;29.23;25.74
78671;BME280;68277;52.724;6.516;2023-06-10T12:04:13;101692.97;;;29.33;26.99
78671;BME280;68277;52.724;6.516;2023-06-10T12:06:43;101670.16;;;29.34;25.87
78671;BME280;68277;52.724;6.516;2023-06-10T12:11:48;101661.13;;;29.33;24.43
78671;BME280;68277;52.724;6.516;2023-06-10T12:14:14;101688.44;;;29.43;23.97
78671;BME280;68277;52.724;6.516;2023-06-10T12:16:40;101687.47;;;29.44;24.45
78671;BME280;68277;52.724;6.516;2023-06-10T12:19:06;101668.69;;;29.50;24.60
78671;BME280;68277;52.724;6.516;2023-06-10T12:21:33;101643.19;;;29.70;24.50
78671;BME280;68277;52.724;6.516;2023-06-10T12:24:04;101660.69;;;29.89;23.73
78671;BME280;68277;52.724;6.516;2023-06-10T12:26:41;101674.75;;;29.94;23.13
78671;BME280;68277;52.724;6.516;2023-06-10T12:29:24;101644.66;;;29.74;21.52
78671;BME280;68277;52.724;6.516;2023-06-10T12:32:03;101667.75;;;29.91;22.65
78671;BME280;68277;52.724;6.516;2023-06-10T12:34:32;101671.25;;;30.12;23.83
78671;BME280;68277;52.724;6.516;2023-06-10T12:36:59;101661.06;;;30.24;23.48
78671;BME280;68277;52.724;6.516;2023-06-10T12:39:24;101639.91;;;30.07;22.71
78671;BME280;68277;52.724;6.516;2023-06-10T12:41:51;101667.94;;;30.09;21.60
78671;BME280;68277;52.724;6.516;2023-06-10T12:44:16;101637.41;;;29.94;22.46
78671;BME280;68277;52.724;6.516;2023-06-10T12:46:42;101663.78;;;30.14;22.11
78671;BME280;68277;52.724;6.516;2023-06-10T12:49:21;101647.84;;;30.19;21.89
78671;BME280;68277;52.724;6.516;2023-06-10T12:51:47;101647.53;;;30.13;22.01
78671;BME280;68277;52.724;6.516;2023-06-10T12:54:13;101659.06;;;30.26;21.59
78671;BME280;68277;52.724;6.516;2023-06-10T12:56:38;101650.22;;;30.43;21.02
78671;BME280;68277;52.724;6.516;2023-06-10T12:59:04;101654.63;;;30.34;21.95
78671;BME280;68277;52.724;6.516;2023-06-10T13:01:29;101643.97;;;30.22;21.83
78671;BME280;68277;52.724;6.516;2023-06-10T13:03:57;101646.00;;;30.39;21.40
78671;BME280;68277;52.724;6.516;2023-06-10T13:06:22;101651.78;;;30.55;19.88
78671;BME280;68277;52.724;6.516;2023-06-10T13:08:48;101632.50;;;30.37;20.77
78671;BME280;68277;52.724;6.516;2023-06-10T13:11:14;101648.63;;;30.50;17.66
78671;BME280;68277;52.724;6.516;2023-06-10T13:13:39;101651.94;;;30.54;21.16